createdAt,value
2023-05-19T00:01:00.577Z,15.80
2023-05-19T00:03:28.899Z,15.82
2023-05-19T00:05:57.330Z,15.57
2023-05-19T00:08:25.063Z,15.30
2023-05-19T00:10:53.015Z,15.60
2023-05-19T00:13:21.646Z,15.38
2023-05-19T00:15:49.663Z,15.39
2023-05-19T00:18:17.548Z,15.40
2023-05-19T00:20:45.008Z,15.41
2023-05-19T00:23:12.467Z,15.39
2023-05-19T00:25:40.201Z,15.44
2023-05-19T00:28:07.650Z,15.24
2023-05-19T00:30:35.062Z,15.27
2023-05-19T00:33:02.747Z,15.24
2023-05-19T00:35:30.291Z,15.36
2023-05-19T00:37:58.662Z,15.36
2023-05-19T00:40:27.250Z,15.46
2023-05-19T00:42:54.792Z,15.43
2023-05-19T00:45:22.243Z,15.44
2023-05-19T00:47:50.070Z,15.36
2023-05-19T00:50:17.535Z,15.44
2023-05-19T00:52:45.151Z,15.51
2023-05-19T00:55:14.068Z,15.60
2023-05-19T00:57:42.084Z,15.80
2023-05-19T01:00:11.298Z,15.46
2023-05-19T01:02:40.051Z,15.29
2023-05-19T01:05:08.807Z,15.33
2023-05-19T01:07:36.859Z,15.26
2023-05-19T01:10:04.838Z,15.21
2023-05-19T01:12:32.264Z,15.20
2023-05-19T01:14:59.886Z,15.25
2023-05-19T01:17:54.730Z,15.28
2023-05-19T01:20:33.332Z,15.33
2023-05-19T01:23:15.164Z,15.37
2023-05-19T01:26:10.394Z,15.23
2023-05-19T01:28:44.228Z,15.03
2023-05-19T01:31:12.202Z,15.31
2023-05-19T01:33:41.813Z,15.18
2023-05-19T01:36:10.576Z,15.22
2023-05-19T01:38:39.200Z,15.21
2023-05-19T01:41:07.071Z,15.19
2023-05-19T01:43:35.967Z,15.14
2023-05-19T01:46:03.477Z,15.07
2023-05-19T01:48:31.369Z,15.23
2023-05-19T01:50:59.633Z,15.22
2023-05-19T01:53:27.033Z,15.24
2023-05-19T01:55:56.369Z,15.17
2023-05-19T01:58:32.917Z,15.18
2023-05-19T02:01:09.894Z,15.09
2023-05-19T02:04:02.158Z,15.12
2023-05-19T02:06:42.297Z,15.41
2023-05-19T02:09:32.573Z,14.97
2023-05-19T02:12:11.387Z,15.14
2023-05-19T02:14:42.241Z,15.40
2023-05-19T02:17:10.901Z,15.01
2023-05-19T02:19:40.119Z,15.09
2023-05-19T02:22:08.695Z,15.04
2023-05-19T02:24:37.643Z,14.88
2023-05-19T02:27:05.835Z,15.06
2023-05-19T02:29:34.660Z,14.96
2023-05-19T02:32:02.336Z,15.07
2023-05-19T02:34:30.126Z,15.22
2023-05-19T02:36:58.064Z,15.33
2023-05-19T02:39:26.397Z,15.46
2023-05-19T02:41:53.989Z,15.07
2023-05-19T02:44:21.694Z,15.13
2023-05-19T02:46:49.125Z,14.92
2023-05-19T02:49:16.638Z,15.08
2023-05-19T02:51:44.448Z,15.22
2023-05-19T02:54:12.021Z,14.79
2023-05-19T02:56:39.465Z,14.88
2023-05-19T02:59:07.168Z,15.05
2023-05-19T03:01:34.660Z,15.34
2023-05-19T03:04:02.425Z,15.06
2023-05-19T03:06:32.884Z,15.04
2023-05-19T03:09:00.340Z,15.00
2023-05-19T03:11:27.754Z,14.92
2023-05-19T03:13:55.515Z,14.96
2023-05-19T03:16:23.016Z,14.82
2023-05-19T03:18:51.199Z,14.73
2023-05-19T03:21:18.952Z,14.75
2023-05-19T03:23:47.162Z,15.01
2023-05-19T03:26:14.720Z,15.19
2023-05-19T03:28:42.567Z,15.21
2023-05-19T03:31:10.060Z,15.09
2023-05-19T03:33:37.794Z,15.18
2023-05-19T03:36:06.242Z,15.26
2023-05-19T03:38:33.957Z,15.07
2023-05-19T03:41:01.678Z,15.06
2023-05-19T03:43:29.382Z,15.26
2023-05-19T03:45:57.063Z,15.05
2023-05-19T03:48:26.778Z,15.04
2023-05-19T03:51:04.461Z,15.07
2023-05-19T03:53:31.899Z,15.06
2023-05-19T03:56:00.665Z,15.08
2023-05-19T03:58:30.220Z,15.22
2023-05-19T04:00:57.869Z,15.35
2023-05-19T04:03:28.611Z,15.30
2023-05-19T04:05:56.574Z,15.28
2023-05-19T04:08:23.980Z,15.20
2023-05-19T04:10:51.727Z,15.23
2023-05-19T04:13:19.114Z,15.38
2023-05-19T04:15:46.585Z,15.33
2023-05-19T04:18:14.332Z,15.08
2023-05-19T04:20:42.293Z,15.28
2023-05-19T04:23:09.726Z,15.31
2023-05-19T04:25:38.461Z,15.47
2023-05-19T04:28:06.181Z,15.53
2023-05-19T04:30:34.680Z,15.67
2023-05-19T04:33:04.869Z,15.58
2023-05-19T04:35:32.653Z,15.78
2023-05-19T04:38:01.659Z,15.77
2023-05-19T04:40:31.376Z,15.75
2023-05-19T04:43:02.040Z,16.07
2023-05-19T04:45:30.233Z,16.30
2023-05-19T04:47:58.250Z,16.23
2023-05-19T04:50:26.283Z,16.10
2023-05-19T04:52:54.156Z,16.37
2023-05-19T04:55:21.976Z,16.57
2023-05-19T04:57:49.731Z,16.42
2023-05-19T05:00:18.887Z,15.89
2023-05-19T05:02:47.025Z,15.99
2023-05-19T05:05:17.734Z,16.46
2023-05-19T05:07:46.040Z,16.41
2023-05-19T05:10:13.601Z,16.52
2023-05-19T05:12:41.776Z,16.43
2023-05-19T05:15:10.236Z,16.85
2023-05-19T05:17:38.074Z,16.87
2023-05-19T05:20:06.972Z,16.50
2023-05-19T05:22:34.939Z,16.66
2023-05-19T05:25:04.029Z,16.78
2023-05-19T05:27:32.667Z,16.50
2023-05-19T05:30:00.699Z,16.34
2023-05-19T05:32:28.911Z,16.38
2023-05-19T05:34:56.500Z,16.58
2023-05-19T05:37:28.384Z,16.78
2023-05-19T05:39:55.841Z,16.64
2023-05-19T05:42:24.493Z,16.95
2023-05-19T05:44:54.752Z,16.04
2023-05-19T05:47:22.306Z,16.50
2023-05-19T05:49:51.146Z,16.62
2023-05-19T05:52:22.315Z,16.52
2023-05-19T05:54:49.980Z,16.84
2023-05-19T05:57:18.223Z,16.74
2023-05-19T05:59:47.184Z,16.94
2023-05-19T06:02:15.346Z,17.48
2023-05-19T06:04:43.999Z,17.66
2023-05-19T06:07:12.153Z,17.07
2023-05-19T06:09:39.997Z,16.69
2023-05-19T06:12:08.131Z,16.56
2023-05-19T06:14:35.909Z,17.06
2023-05-19T06:17:05.910Z,17.06
2023-05-19T06:19:35.135Z,17.34
2023-05-19T06:22:02.943Z,17.40
2023-05-19T06:24:31.048Z,17.08
2023-05-19T06:27:01.308Z,17.61
2023-05-19T06:29:28.798Z,17.98
2023-05-19T06:31:57.079Z,18.30
2023-05-19T06:34:25.814Z,18.64
2023-05-19T06:36:53.974Z,18.94
2023-05-19T06:39:22.131Z,18.78
2023-05-19T06:41:50.748Z,18.96
2023-05-19T06:44:23.863Z,18.59
2023-05-19T06:46:51.742Z,18.55
2023-05-19T06:49:21.006Z,18.80
2023-05-19T06:51:49.271Z,19.32
2023-05-19T06:54:17.052Z,19.07
2023-05-19T06:56:45.087Z,19.44
2023-05-19T06:59:12.547Z,18.84
2023-05-19T07:01:40.285Z,18.96
2023-05-19T07:04:07.886Z,19.00
2023-05-19T07:06:35.330Z,19.25
2023-05-19T07:09:05.468Z,19.33
2023-05-19T07:11:33.388Z,19.67
2023-05-19T07:14:01.005Z,19.66
2023-05-19T07:16:28.948Z,18.87
2023-05-19T07:18:56.483Z,18.64
2023-05-19T07:21:24.306Z,18.52
2023-05-19T07:23:52.037Z,19.08
2023-05-19T07:26:19.524Z,19.22
2023-05-19T07:28:46.955Z,19.07
2023-05-19T07:31:14.684Z,19.10
2023-05-19T07:33:42.100Z,19.14
2023-05-19T07:36:09.568Z,19.28
2023-05-19T07:38:37.372Z,18.41
2023-05-19T07:41:04.918Z,17.79
2023-05-19T07:43:32.640Z,18.40
2023-05-19T07:46:00.471Z,18.28
2023-05-19T07:48:27.979Z,18.84
2023-05-19T07:50:55.783Z,18.71
2023-05-19T07:53:26.743Z,19.30
2023-05-19T07:55:55.840Z,19.05
2023-05-19T07:58:24.130Z,18.91
2023-05-19T08:00:51.565Z,19.17
2023-05-19T08:03:19.503Z,18.92
2023-05-19T08:05:47.005Z,19.23
2023-05-19T08:08:16.911Z,19.07
2023-05-19T08:10:44.805Z,19.25
2023-05-19T08:13:12.277Z,18.91
2023-05-19T08:15:39.918Z,19.04
2023-05-19T08:18:07.688Z,19.59
2023-05-19T08:20:35.353Z,19.36
2023-05-19T08:23:02.946Z,19.64
2023-05-19T08:25:30.652Z,19.15
2023-05-19T08:27:58.048Z,19.29
2023-05-19T08:30:25.543Z,19.58
2023-05-19T08:52:23.571Z,21.03
2023-05-19T08:54:54.850Z,20.80
2023-05-19T08:57:23.772Z,20.45
2023-05-19T08:59:51.967Z,20.10
2023-05-19T09:02:19.923Z,19.96
2023-05-19T09:04:48.158Z,20.33
2023-05-19T09:07:15.882Z,20.32
2023-05-19T09:09:44.196Z,20.30
2023-05-19T09:12:12.191Z,20.27
2023-05-19T09:14:39.760Z,20.65
2023-05-19T09:17:07.255Z,20.79
2023-05-19T09:19:35.137Z,20.89
2023-05-19T09:22:06.656Z,20.35
2023-05-19T09:24:34.620Z,20.76
2023-05-19T09:27:02.452Z,21.03
2023-05-19T09:29:34.380Z,21.16
2023-05-19T09:32:05.236Z,21.33
2023-05-19T09:34:33.209Z,21.19
2023-05-19T09:37:00.657Z,21.80
2023-05-19T09:39:29.022Z,22.24
2023-05-19T09:41:59.872Z,21.80
2023-05-19T09:44:36.095Z,22.08
2023-05-19T09:47:03.954Z,21.82
2023-05-19T09:49:32.774Z,22.13
2023-05-19T09:52:03.485Z,21.61
2023-05-19T09:54:32.670Z,22.19
2023-05-19T09:57:03.627Z,21.66
2023-05-19T09:59:33.669Z,21.16
2023-05-19T10:02:02.532Z,21.16
2023-05-19T10:04:31.428Z,20.73
2023-05-19T10:07:05.397Z,21.19
2023-05-19T10:09:33.748Z,21.47
2023-05-19T10:12:08.778Z,21.35
2023-05-19T10:14:37.108Z,21.02
2023-05-19T10:17:04.810Z,21.73
2023-05-19T10:19:32.433Z,21.96
2023-05-19T10:22:00.269Z,21.99
2023-05-19T10:24:27.795Z,21.86
2023-05-19T10:27:01.677Z,22.19
2023-05-19T10:29:32.750Z,22.37
2023-05-19T10:32:09.632Z,22.25
2023-05-19T10:35:01.995Z,22.12
2023-05-19T10:38:08.141Z,22.71
2023-05-19T10:40:57.705Z,22.53
2023-05-19T10:43:39.570Z,22.38
2023-05-19T10:46:07.652Z,22.56
2023-05-19T10:48:38.106Z,22.02
2023-05-19T10:51:12.173Z,22.26
2023-05-19T10:53:46.850Z,22.24
2023-05-19T10:56:34.064Z,22.47
2023-05-19T10:59:03.468Z,22.46
2023-05-19T11:01:35.522Z,22.44
2023-05-19T11:04:09.186Z,22.37
2023-05-19T11:06:37.945Z,21.82
2023-05-19T11:09:08.919Z,21.29
2023-05-19T11:11:47.939Z,22.00
2023-05-19T11:14:18.754Z,22.25
2023-05-19T11:16:51.052Z,21.94
2023-05-19T11:19:30.367Z,22.02
2023-05-19T11:22:07.927Z,22.06
2023-05-19T11:24:50.048Z,22.01
2023-05-19T11:27:33.975Z,22.12
2023-05-19T11:30:08.986Z,22.21
2023-05-19T11:32:41.020Z,22.03
2023-05-19T11:35:10.186Z,22.03
2023-05-19T11:37:37.664Z,22.19
2023-05-19T11:40:08.990Z,22.51
2023-05-19T11:42:37.232Z,22.95
2023-05-19T11:45:05.374Z,23.18
2023-05-19T11:47:38.754Z,23.43
2023-05-19T11:50:48.568Z,23.30
2023-05-19T11:53:19.925Z,22.78
2023-05-19T11:55:48.741Z,23.05
2023-05-19T11:58:26.049Z,22.88
2023-05-19T12:00:54.226Z,23.13
2023-05-19T12:06:08.511Z,23.68
2023-05-19T12:08:36.827Z,23.73
2023-05-19T12:11:04.899Z,24.13
2023-05-19T12:13:39.011Z,23.75
2023-05-19T12:16:07.814Z,23.00
2023-05-19T12:18:38.803Z,22.62
2023-05-19T12:21:06.570Z,23.13
2023-05-19T12:23:34.920Z,23.11
2023-05-19T12:26:02.883Z,22.59
2023-05-19T12:28:31.359Z,22.86
2023-05-19T12:30:59.382Z,23.29
2023-05-19T12:33:26.879Z,23.35
2023-05-19T12:35:54.633Z,23.23
2023-05-19T12:41:05.489Z,23.69
2023-05-19T12:43:40.082Z,23.73
2023-05-19T12:46:12.841Z,23.70
2023-05-19T12:48:44.490Z,24.05
2023-05-19T12:51:19.188Z,23.85
2023-05-19T12:53:53.766Z,24.01
2023-05-19T12:56:21.317Z,24.40
2023-05-19T12:58:54.989Z,24.11
2023-05-19T13:01:23.252Z,24.35
2023-05-19T13:03:53.853Z,24.64
2023-05-19T13:06:22.091Z,24.78
2023-05-19T13:08:49.577Z,24.02
2023-05-19T13:11:17.590Z,24.21
2023-05-19T13:13:45.487Z,24.51
2023-05-19T13:16:13.610Z,24.17
2023-05-19T13:18:43.032Z,24.34
2023-05-19T13:21:11.872Z,24.35
2023-05-19T13:23:40.131Z,24.45
2023-05-19T13:26:09.089Z,24.19
2023-05-19T13:28:36.741Z,24.45
2023-05-19T13:31:04.261Z,24.44
2023-05-19T13:33:32.315Z,24.88
2023-05-19T13:35:59.817Z,24.96
2023-05-19T13:38:27.860Z,24.21
2023-05-19T13:40:55.632Z,24.70
2023-05-19T13:43:23.105Z,24.58
2023-05-19T13:45:50.592Z,24.67
2023-05-19T13:48:18.451Z,25.10
2023-05-19T13:50:46.038Z,25.01
2023-05-19T13:53:13.563Z,25.03
2023-05-19T13:55:41.703Z,24.70
2023-05-19T13:58:11.194Z,25.07
2023-05-19T14:00:38.771Z,24.73
2023-05-19T14:03:07.041Z,24.40
2023-05-19T14:05:34.641Z,24.39
2023-05-19T14:08:03.698Z,24.66
2023-05-19T14:10:31.693Z,24.93
2023-05-19T14:15:32.435Z,25.12
2023-05-19T14:17:59.930Z,24.75
2023-05-19T14:20:29.260Z,24.58
2023-05-19T14:22:57.137Z,24.89
2023-05-19T14:25:24.563Z,24.52
2023-05-19T14:27:52.117Z,24.48
2023-05-19T14:30:19.862Z,24.71
2023-05-19T14:32:47.352Z,24.47
2023-05-19T14:35:14.809Z,24.48
2023-05-19T14:37:42.513Z,24.02
2023-05-19T14:40:10.450Z,24.08
2023-05-19T14:42:37.903Z,24.37
2023-05-19T14:45:06.299Z,24.24
2023-05-19T14:47:33.950Z,24.57
2023-05-19T14:50:01.406Z,24.49
2023-05-19T14:52:29.141Z,24.34
2023-05-19T14:54:57.098Z,24.04
2023-05-19T14:57:24.536Z,24.22
2023-05-19T14:59:52.227Z,24.20
2023-05-19T15:02:19.618Z,24.25
2023-05-19T15:04:47.029Z,24.36
2023-05-19T15:07:14.735Z,24.55
2023-05-19T15:09:42.140Z,24.17
2023-05-19T15:12:09.685Z,24.70
2023-05-19T15:14:37.593Z,24.37
2023-05-19T15:17:05.429Z,24.46
2023-05-19T15:19:33.117Z,24.48
2023-05-19T15:22:01.130Z,24.59
2023-05-19T15:24:29.131Z,24.20
2023-05-19T15:26:57.035Z,24.34
2023-05-19T15:29:28.171Z,24.34
2023-05-19T15:32:00.064Z,24.18
2023-05-19T15:34:27.905Z,24.07
2023-05-19T15:36:55.400Z,23.94
2023-05-19T15:39:23.119Z,23.98
2023-05-19T15:41:51.781Z,23.66
2023-05-19T15:44:19.995Z,23.77
2023-05-19T15:46:47.576Z,23.93
2023-05-19T15:49:15.492Z,23.98
2023-05-19T15:51:43.086Z,23.56
2023-05-19T15:54:10.830Z,23.31
2023-05-19T15:56:38.626Z,23.51
2023-05-19T15:59:06.244Z,23.60
2023-05-19T16:01:33.801Z,23.63
2023-05-19T16:04:03.693Z,23.47
2023-05-19T16:06:31.663Z,23.46
2023-05-19T16:08:59.168Z,23.34
2023-05-19T16:11:27.360Z,23.34
2023-05-19T16:13:55.032Z,23.26
2023-05-19T16:16:22.618Z,23.33
2023-05-19T16:19:00.546Z,23.31
2023-05-19T16:21:32.292Z,23.18
2023-05-19T16:24:01.407Z,23.16
2023-05-19T16:26:30.253Z,23.09
2023-05-19T16:28:57.936Z,23.11
2023-05-19T16:31:25.867Z,23.08
2023-05-19T16:33:53.409Z,22.90
2023-05-19T16:36:22.818Z,22.92
2023-05-19T16:38:50.724Z,23.01
2023-05-19T16:41:18.263Z,22.91
2023-05-19T16:43:45.932Z,22.89
2023-05-19T16:46:13.815Z,22.86
2023-05-19T16:48:41.275Z,22.78
2023-05-19T16:51:08.764Z,22.76
2023-05-19T16:53:36.716Z,22.66
2023-05-19T16:56:04.347Z,22.32
2023-05-19T16:58:32.153Z,22.45
2023-05-19T17:01:01.909Z,22.49
2023-05-19T17:03:31.805Z,22.54
2023-05-19T17:06:01.024Z,22.58
2023-05-19T17:08:28.890Z,22.48
2023-05-19T17:10:56.375Z,22.73
2023-05-19T17:13:23.878Z,22.54
2023-05-19T17:15:52.681Z,22.52
2023-05-19T17:18:20.117Z,22.61
2023-05-19T17:20:47.602Z,22.37
2023-05-19T17:23:15.378Z,22.25
2023-05-19T17:25:42.826Z,22.43
2023-05-19T17:28:10.644Z,22.28
2023-05-19T17:30:40.076Z,22.34
2023-05-19T17:33:07.521Z,22.10
2023-05-19T17:35:35.026Z,22.17
2023-05-19T17:38:02.771Z,22.03
2023-05-19T17:40:30.298Z,22.09
2023-05-19T17:42:57.765Z,22.00
2023-05-19T17:45:26.554Z,21.92
2023-05-19T17:47:54.160Z,21.95
2023-05-19T17:50:21.604Z,21.85
2023-05-19T17:52:49.733Z,21.89
2023-05-19T17:55:17.413Z,21.95
2023-05-19T17:57:45.983Z,21.87
2023-05-19T18:00:14.251Z,21.87
2023-05-19T18:02:42.413Z,21.91
2023-05-19T18:05:10.734Z,21.68
2023-05-19T18:07:41.656Z,21.45
2023-05-19T18:10:10.102Z,21.46
2023-05-19T18:12:37.626Z,21.44
2023-05-19T18:15:06.026Z,21.56
2023-05-19T18:17:34.059Z,21.57
2023-05-19T18:20:01.553Z,21.52
2023-05-19T18:22:29.403Z,21.37
2023-05-19T18:24:57.741Z,21.47
2023-05-19T18:27:25.340Z,21.37
2023-05-19T18:29:52.772Z,21.37
2023-05-19T18:32:21.013Z,21.12
2023-05-19T18:34:48.499Z,21.20
2023-05-19T18:37:16.019Z,21.00
2023-05-19T18:39:43.752Z,20.94
2023-05-19T18:42:11.238Z,20.99
2023-05-19T18:44:41.052Z,20.75
2023-05-19T18:47:08.869Z,20.71
2023-05-19T18:49:36.712Z,20.65
2023-05-19T18:52:04.349Z,20.42
2023-05-19T18:54:32.608Z,20.39
2023-05-19T18:57:00.217Z,20.48
2023-05-19T18:59:27.730Z,20.46
2023-05-19T19:01:55.794Z,20.52
2023-05-19T19:04:23.349Z,20.69
2023-05-19T19:06:52.357Z,20.40
2023-05-19T19:09:20.622Z,20.30
2023-05-19T19:11:48.237Z,20.11
2023-05-19T19:14:15.842Z,19.96
2023-05-19T19:16:43.647Z,20.07
2023-05-19T19:19:11.221Z,20.06
2023-05-19T19:21:38.795Z,20.20
2023-05-19T19:24:06.782Z,20.06
2023-05-19T19:26:34.213Z,20.09
2023-05-19T19:29:01.718Z,20.10
2023-05-19T19:31:29.744Z,20.07
2023-05-19T19:34:00.235Z,19.92
2023-05-19T19:36:27.708Z,19.89
2023-05-19T19:38:55.493Z,19.81
2023-05-19T19:41:22.903Z,19.66
2023-05-19T19:43:51.047Z,19.56
2023-05-19T19:46:18.843Z,19.67
2023-05-19T19:48:46.349Z,19.69
2023-05-19T19:51:13.787Z,19.69
2023-05-19T19:53:41.502Z,19.66
2023-05-19T19:56:08.977Z,19.68
2023-05-19T19:58:36.505Z,19.73
2023-05-19T20:01:05.790Z,19.64
2023-05-19T20:03:33.830Z,19.56
2023-05-19T20:06:01.337Z,19.77
2023-05-19T20:08:28.798Z,19.45
2023-05-19T20:10:56.513Z,19.57
2023-05-19T20:13:24.452Z,19.56
2023-05-19T20:15:51.883Z,19.47
2023-05-19T20:18:19.624Z,19.62
2023-05-19T20:20:47.061Z,19.58
2023-05-19T20:23:16.260Z,19.80
2023-05-19T20:26:02.523Z,19.66
2023-05-19T20:28:32.248Z,19.58
2023-05-19T20:30:59.982Z,19.61
2023-05-19T20:33:27.445Z,19.61
2023-05-19T20:35:54.845Z,19.70
2023-05-19T20:38:22.543Z,19.63
2023-05-19T20:40:50.005Z,19.67
2023-05-19T20:43:17.450Z,19.65
2023-05-19T20:45:45.645Z,19.50
2023-05-19T20:48:13.142Z,19.43
2023-05-19T20:50:40.661Z,19.63
2023-05-19T20:53:08.351Z,19.52
2023-05-19T20:55:38.628Z,19.45
2023-05-19T20:58:06.214Z,19.59
2023-05-19T21:00:34.125Z,19.65
2023-05-19T21:03:01.978Z,19.58
2023-05-19T21:05:29.504Z,19.47
2023-05-19T21:07:57.391Z,19.45
2023-05-19T21:10:24.836Z,19.45
2023-05-19T21:12:52.392Z,19.35
2023-05-19T21:15:20.345Z,19.41
2023-05-19T21:17:47.993Z,19.39
2023-05-19T21:20:15.553Z,19.43
2023-05-19T21:22:43.369Z,19.38
2023-05-19T21:25:11.125Z,19.15
2023-05-19T21:27:39.539Z,19.07
2023-05-19T21:30:07.694Z,19.11
2023-05-19T21:32:35.428Z,19.13
2023-05-19T21:35:04.376Z,19.11
2023-05-19T21:37:32.516Z,18.93
2023-05-19T21:40:00.098Z,19.07
2023-05-19T21:42:28.197Z,19.04
2023-05-19T21:44:55.988Z,19.00
2023-05-19T21:47:23.397Z,18.87
2023-05-19T21:49:50.793Z,18.77
2023-05-19T21:52:19.215Z,18.74
2023-05-19T21:54:47.821Z,18.65
2023-05-19T21:57:15.253Z,18.71
2023-05-19T21:59:44.010Z,18.66
2023-05-19T22:02:11.602Z,18.81
2023-05-19T22:04:39.516Z,18.78
2023-05-19T22:07:06.913Z,18.76
2023-05-19T22:09:34.354Z,18.60
2023-05-19T22:12:02.032Z,18.58
2023-05-19T22:14:29.581Z,18.78
2023-05-19T22:16:57.025Z,18.68
2023-05-19T22:19:24.929Z,18.69
2023-05-19T22:22:01.909Z,18.67
2023-05-19T22:24:38.351Z,18.71
2023-05-19T22:27:07.839Z,18.76
2023-05-19T22:29:38.458Z,18.49
2023-05-19T22:32:09.261Z,18.54
2023-05-19T22:34:36.685Z,18.57
2023-05-19T22:37:04.409Z,18.62
2023-05-19T22:39:32.088Z,18.52
2023-05-19T22:41:59.515Z,18.56
2023-05-19T22:44:27.123Z,18.56
2023-05-19T22:46:54.838Z,18.46
2023-05-19T22:49:27.374Z,18.33
2023-05-19T22:51:55.127Z,18.13
2023-05-19T22:54:22.521Z,18.02
2023-05-19T22:56:49.963Z,18.07
2023-05-19T22:59:18.110Z,18.24
2023-05-19T23:01:46.790Z,18.24
2023-05-19T23:04:14.546Z,18.15
2023-05-19T23:06:42.316Z,18.01
2023-05-19T23:09:09.757Z,18.07
2023-05-19T23:11:37.218Z,17.95
2023-05-19T23:14:05.062Z,18.02
2023-05-19T23:16:32.579Z,18.32
2023-05-19T23:19:00.044Z,17.94
2023-05-19T23:21:27.797Z,17.96
2023-05-19T23:23:55.799Z,18.11
2023-05-19T23:26:23.385Z,18.05
2023-05-19T23:28:51.074Z,18.25
2023-05-19T23:31:18.559Z,18.00
2023-05-19T23:33:46.128Z,18.29
2023-05-19T23:36:13.910Z,18.15
2023-05-19T23:38:41.436Z,18.21
2023-05-19T23:41:08.942Z,17.71
2023-05-19T23:43:37.800Z,18.13
2023-05-19T23:46:05.334Z,18.14
2023-05-19T23:48:33.678Z,18.40
2023-05-19T23:51:01.408Z,18.29
2023-05-19T23:53:28.876Z,18.09
2023-05-19T23:55:57.923Z,18.26
2023-05-19T23:58:26.514Z,18.30
